Flight Track Log - Related Links

Times and Time Zones

All times are in EST time to prevent confusion due to time zone crossing. See the N7800 flight status page for this flight to view local times or setup timezone preferences in your user account.

Time Position Orientation Groundspeed Altitude Reporting Facility
EST Latitude Longitude Course Direction KTS MPH feet Rate Location/Type
Wed 05:27:31 PM 36.9989 -121.6011 139° Southeast 182 209 9,400  Level Oakland Center
Wed 05:28:32 PM 36.9606 -121.5594 139° Southeast 183 211 9,400  Level Oakland Center
Wed 05:29:33 PM 36.9139 -121.5081 139° Southeast 186 214 9,400  Level Oakland Center
Wed 05:30:35 PM 36.8767 -121.4656 138° Southeast 183 211 9,400 49 Level Oakland Center
Wed 05:31:36 PM 36.8394 -121.4244 139° Southeast 179 206 9,500 49 Climbing Oakland Center
Wed 05:32:37 PM 36.8022 -121.3842 139° Southeast 183 211 9,500  Level Oakland Center
Wed 05:33:38 PM 36.7647 -121.3425 138° Southeast 181 208 9,500  Level Oakland Center
Wed 05:34:40 PM 36.7267 -121.3008 139° Southeast 182 209 9,500  Level Oakland Center
Wed 05:35:41 PM 36.6892 -121.2592 138° Southeast 182 209 9,500  Level Oakland Center
Wed 05:36:42 PM 36.6436 -121.2100 139° Southeast 181 208 9,500  Level Oakland Center
Wed 05:37:44 PM 36.6064 -121.1692 139° Southeast 178 205 9,500  Level Oakland Center
Wed 05:38:45 PM 36.5689 -121.1267 138° Southeast 181 208 9,500  Level Oakland Center
Wed 05:39:46 PM 36.5314 -121.0861 139° Southeast 179 206 9,500  Level Oakland Center
Wed 05:40:47 PM 36.4933 -121.0433 138° Southeast 183 211 9,500  Level Oakland Center
Wed 05:41:49 PM 36.4556 -121.0025 139° Southeast 182 209 9,500  Level Oakland Center
Wed 05:42:50 PM 36.4167 -120.9622 140° Southeast 182 209 9,500  Level Oakland Center
Wed 05:43:51 PM 36.3800 -120.9189 136° Southeast 182 209 9,500  Level Oakland Center
Wed 05:44:53 PM 36.3406 -120.8789 141° Southeast 183 211 9,500  Level Oakland Center
Wed 05:45:54 PM 36.3047 -120.8375 137° Southeast 177 204 9,500  Level Oakland Center
Wed 05:46:55 PM 36.2600 -120.7894 139° Southeast 179 206 9,500  Level Oakland Center
Wed 05:47:57 PM 36.2231 -120.7497 139° Southeast 176 203 9,500  Level Oakland Center
Wed 05:48:58 PM 36.1864 -120.7094 138° Southeast 176 203 9,500  Level Oakland Center
Wed 05:50:00 PM 36.1489 -120.6714 141° Southeast 176 203 9,500 -49 Level Oakland Center
Wed 05:51:01 PM 36.1125 -120.6319 139° Southeast 175 201 9,400  Descending Oakland Center
Wed 05:52:02 PM 36.0764 -120.5919 138° Southeast 175 201 9,500 49 Climbing Oakland Center
Wed 05:53:04 PM 36.0394 -120.5525 139° Southeast 175 201 9,500  Level Oakland Center
Wed 05:54:05 PM 36.0025 -120.5128 139° Southeast 176 203 9,500 -49 Level Oakland Center
Wed 05:55:06 PM 35.9664 -120.4722 138° Southeast 175 201 9,400 -49 Descending Oakland Center
Wed 05:56:08 PM 35.9214 -120.4253 140° Southeast 176 203 9,400  Level Oakland Center
Wed 05:57:09 PM 35.8833 -120.3850 139° Southeast 177 204 9,400  Level Oakland Center
Wed 05:58:11 PM 35.8472 -120.3450 138° Southeast 178 205 9,400  Level Oakland Center
Wed 05:59:12 PM 35.8097 -120.3056 140° Southeast 177 204 9,400  Level Oakland Center
Wed 06:00:14 PM 35.7733 -120.2661 139° Southeast 174 200 9,400  Level Oakland Center
Wed 06:01:15 PM 35.7358 -120.2272 140° Southeast 175 201 9,400  Level Oakland Center
Wed 06:02:16 PM 35.6983 -120.1869 139° Southeast 177 204 9,400  Level Oakland Center
Wed 06:03:18 PM 35.6614 -120.1469 139° Southeast 177 204 9,400  Level Oakland Center
Wed 06:04:19 PM 35.6222 -120.1072 140° Southeast 180 207 9,400  Level Oakland Center
Wed 06:04:52 PM 35.5992 -120.0825 139° Southeast 181 208 9,400  Level Los Angeles Center
Wed 06:05:54 PM 35.5614 -120.0417 139° Southeast 181 208 9,400  Level Los Angeles Center
Wed 06:06:56 PM 35.5239 -120.0022 139° Southeast 178 205 9,400  Level Los Angeles Center
Wed 06:08:10 PM 35.4786 -119.9547 139° Southeast 178 205 9,400  Level Los Angeles Center
Wed 06:09:13 PM 35.4411 -119.9150 139° Southeast 178 205 9,400  Level Los Angeles Center
Wed 06:10:15 PM 35.3967 -119.8683 139° Southeast 175 201 9,400  Level Los Angeles Center
Wed 06:11:17 PM 35.3589 -119.8278 139° Southeast 178 205 9,400  Level Los Angeles Center
Wed 06:12:19 PM 35.3217 -119.7892 140° Southeast 177 204 9,400  Level Los Angeles Center
Wed 06:13:34 PM 35.2836 -119.7492 139° Southeast 178 205 9,400  Level Los Angeles Center
Wed 06:14:36 PM 35.2319 -119.6947 139° Southeast 177 204 9,400  Level Los Angeles Center
Wed 06:15:38 PM 35.1942 -119.6561 140° Southeast 177 204 9,400  Level Los Angeles Center
Wed 06:16:40 PM 35.1578 -119.6181 139° Southeast 174 200 9,400  Level Los Angeles Center
Wed 06:17:43 PM 35.1214 -119.5789 139° Southeast 174 200 9,400  Level Los Angeles Center
Wed 06:18:57 PM 35.0839 -119.5417 141° Southeast 174 200 9,400  Level Los Angeles Center
Wed 06:19:59 PM 35.0392 -119.4953 140° Southeast 175 201 9,400  Level Los Angeles Center
Wed 06:21:01 PM 34.9953 -119.4483 139° Southeast 174 200 9,400  Level Los Angeles Center
Wed 06:22:04 PM 34.9575 -119.4103 140° Southeast 176 203 9,400  Level Los Angeles Center
Wed 06:23:06 PM 34.9200 -119.3711 139° Southeast 177 204 9,400  Level Los Angeles Center
Wed 06:24:08 PM 34.8833 -119.3306 138° Southeast 177 204 9,400 48 Level Los Angeles Center
Wed 06:25:10 PM 34.8450 -119.2931 141° Southeast 178 205 9,500 48 Climbing Los Angeles Center
Wed 06:26:12 PM 34.7986 -119.2492 142° Southeast 175 201 9,500  Level Los Angeles Center
Wed 06:27:14 PM 34.7628 -119.2092 137° Southeast 176 203 9,500  Level Los Angeles Center
Wed 06:28:16 PM 34.7247 -119.1703 140° Southeast 178 205 9,500  Level Los Angeles Center
Wed 06:29:19 PM 34.6872 -119.1303 139° Southeast 179 206 9,500 48 Level Los Angeles Center
Wed 06:30:21 PM 34.6478 -119.0908 141° Southeast 186 214 9,600  Climbing Los Angeles Center
Wed 06:31:23 PM 34.6008 -119.0439 141° Southeast 183 211 9,500 -48 Descending Los Angeles Center
Wed 06:32:25 PM 34.5603 -119.0067 143° Southeast 182 209 9,500  Level Los Angeles Center
Wed 06:33:27 PM 34.5217 -118.9650 138° Southeast 185 213 9,500  Level Los Angeles Center
Wed 06:34:29 PM 34.4828 -118.9261 140° Southeast 181 208 9,500  Level Los Angeles Center
Wed 06:35:31 PM 34.4542 -118.8961 139° Southeast 174 200 9,500 -144 Level Los Angeles Center
Wed 06:36:34 PM 34.4072 -118.8508 141° Southeast 181 208 9,200 -576 Descending Los Angeles Center
Wed 06:37:36 PM 34.3572 -118.8042 142° Southeast 187 215 8,300 -726 Descending Los Angeles Center
Wed 06:38:38 PM 34.3181 -118.7664 141° Southeast 181 208 7,700 -726 Descending Los Angeles Center
Wed 06:39:40 PM 34.2783 -118.7269 141° Southeast 183 211 6,800 -1,065 Descending Los Angeles Center
Wed 06:40:42 PM 34.2397 -118.6825 136° Southeast 189 217 5,500 -1,113 Descending Los Angeles Center
Wed 06:41:44 PM 34.2050 -118.6383 134° Southeast 186 214 4,500 -884 Descending Los Angeles Center
Wed 06:42:17 PM 34.1833 -118.6000 124° Southeast 178 205 4,100 -485 Descending Southern California TRACON
Wed 06:43:23 PM 34.1500 -118.5667 140° Southeast 165 190 3,700 -650 Descending Southern California TRACON
Wed 06:44:17 PM 34.1167 -118.5333 140° Southeast 172 198 2,800 -897 Descending Southern California TRACON
Wed 06:44:50 PM 34.1014 -118.5056 124° Southeast 169 194 2,400 -632 Descending Los Angeles Center
Wed 06:45:52 PM 34.0717 -118.4656 132° Southeast 157 181 1,800 -484 Descending Los Angeles Center
Wed 06:46:54 PM 34.0475 -118.4361 135° Southeast 139 160 1,400 -435 Descending Los Angeles Center
Wed 06:47:56 PM 34.0308 -118.4336 173° South 110 127 900 -484 Descending Los Angeles Center
Wed 06:48:58 PM 34.0128 -118.4558 226° Southwest 102 117 400 -484 Descending Los Angeles Center

Login

Don't have an account? Register now (free) for customized features, flight alerts, and more!